Lock Haven, PA

11:32 AM EDT on September 04, 2015 (GMT -0400)
W3SKP | | Change Station
CLOSE
Current Station
Personal Weather Station
Location: Lock Haven, PA
Elevation: 633 ft
Nearby Weather Stations

Elev 633 ft 41.14 °N, 77.42 °W | Updated 3 minutes ago

Partly Cloudy
Partly Cloudy
90.1 °F
Feels Like 105 °F
N
2.7
Wind Variable Wind from East

Today
High -- | Low -- °F
--% Chance of Precip.
Yesterday
High -- | Low -- °F
Precip. -- in
6:38 AM 7:37 PM
Waning Gibbous, 58% visible
Pressure 30.07 in
Visibility 10.0 miles
Clouds Scattered Clouds 2500 ft
Heat Index 105 °F
Dew Point 78 °F
Humidity 68%
Rainfall 0.00 in
Snow Depth Not available.
UV 5 out of 12
Pollen 9.10 out of 12
Air Quality Not available.
Flu Activity Not available.
METAR KIPT 041454Z VRB04KT 10SM SCT025 26/20 A3008 RMK AO2 SLP181 T02560200 51009
Pressure 30.07 in
Visibility 10.0 miles
Clouds Scattered Clouds 2500 ft
Heat Index 105 °F
Dew Point 78 °F
Humidity 68%
Rainfall 0.00 in
Snow Depth Not available.
UV 5 out of 12
Pollen 9.10 out of 12
Air Quality Not available.
Flu Activity Not available.
METAR KIPT 041454Z VRB04KT 10SM SCT025 26/20 A3008 RMK AO2 SLP181 T02560200 51009

10-Day Weather Forecast

×

Almanac

Astronomy

Sep. 04, 2015 Rise Set
Actual Time
Civil Twilight
Nautical Twilight
Astronomical Twilight
Moon
Length of Visible Light
Length of Day
Tomorrow will be .
, % of the Moon is Illuminated

Today's Extremes

State Highs State Lows

Community

WunderPhotos

Upload Photos

1,852,195 photos uploaded!

WunderBlogs® & News

Nearby

Air Quality

  Air Quality AQ Index Pollutant
Not available.

Snow Depth

Station Depth Elevation

Earthquake Activity

City Distance Mag. Time & Date
Minimum magnitude displayed is 2.5.

Coastal Water Temperatures

Place Temperature

Stations

Nearby Weather Stations

Station Location Temp. Windchill Dew Point Humidity Wind Precip. Elev Updated Type